Richland, Mississippi
Current Conditions -  °F | °C
As of 9:54 AM on Friday 24 Oct 2014 (Local Time) from KJAN Reporting Station
Few Clouds Few Clouds  
Wind Chill: 61°   Ceiling: Unl
Heat Index: 61°   Visibility: 10mi
Dew Point: 52°   Wind: 3mph
Humidity: 72%   Direction: 340°NNW
Pressure: 30.15"   Gusts: NA
Location:  32.2326°N, 90.165°W
Report Text: KJAN 241454Z 34003KT 10SM FEW250 16/11 A3015 RMK AO2 SLP209 T01610111 50009
Loading
Personal Weather Stations






























Interactive Weather Map
Tropical Storm Tracking
New forecast layout! Learn more

10-Day Weather Forecast

Advertisements
Track Severe Weather on mobile